createdAt,value
2022-08-28T00:01:04.122Z,18.66
2022-08-28T00:03:35.473Z,18.60
2022-08-28T00:06:10.387Z,18.56
2022-08-28T00:08:41.842Z,18.53
2022-08-28T00:11:12.897Z,18.49
2022-08-28T00:13:44.006Z,18.51
2022-08-28T00:16:15.139Z,18.50
2022-08-28T00:18:47.284Z,18.48
2022-08-28T00:21:18.525Z,18.41
2022-08-28T00:23:49.512Z,18.30
2022-08-28T00:26:34.470Z,18.24
2022-08-28T00:29:06.527Z,18.25
2022-08-28T00:31:39.747Z,18.26
2022-08-28T00:34:11.309Z,18.26
2022-08-28T00:36:42.330Z,18.29
2022-08-28T00:39:13.379Z,18.31
2022-08-28T00:41:48.494Z,18.26
2022-08-28T00:44:29.415Z,18.22
2022-08-28T00:47:01.715Z,18.20
2022-08-28T00:49:37.131Z,18.21
2022-08-28T00:52:11.949Z,18.21
2022-08-28T00:54:56.826Z,18.19
2022-08-28T00:57:33.920Z,18.20
2022-08-28T01:00:05.933Z,18.22
2022-08-28T01:02:36.989Z,18.26
2022-08-28T01:05:10.140Z,18.23
2022-08-28T01:07:42.028Z,18.22
2022-08-28T01:10:16.856Z,18.24
2022-08-28T01:12:50.676Z,18.27
2022-08-28T01:15:25.383Z,18.28
2022-08-28T01:18:10.784Z,18.30
2022-08-28T01:20:49.147Z,18.33
2022-08-28T01:23:30.287Z,18.32
2022-08-28T01:26:01.757Z,18.29
2022-08-28T01:28:39.286Z,18.27
2022-08-28T01:31:12.471Z,18.23
2022-08-28T01:33:45.279Z,18.22
2022-08-28T01:36:18.155Z,18.23
2022-08-28T01:38:54.093Z,18.24
2022-08-28T01:41:25.246Z,18.24
2022-08-28T01:43:56.520Z,18.24
2022-08-28T01:46:28.430Z,18.24
2022-08-28T01:49:00.217Z,18.25
2022-08-28T01:51:35.053Z,18.26
2022-08-28T01:54:09.768Z,18.26
2022-08-28T01:56:41.873Z,18.25
2022-08-28T01:59:14.286Z,18.24
2022-08-28T02:01:46.118Z,18.24
2022-08-28T02:04:17.502Z,18.25
2022-08-28T02:06:48.635Z,18.25
2022-08-28T02:09:20.227Z,18.25
2022-08-28T02:11:51.154Z,18.25
2022-08-28T02:14:22.724Z,18.22
2022-08-28T02:16:53.933Z,18.23
2022-08-28T02:19:25.033Z,18.20
2022-08-28T02:21:56.035Z,18.16
2022-08-28T02:24:27.185Z,18.13
2022-08-28T02:26:57.999Z,18.10
2022-08-28T02:29:29.320Z,18.09
2022-08-28T02:32:00.373Z,18.07
2022-08-28T02:34:31.475Z,18.12
2022-08-28T02:37:02.758Z,18.14
2022-08-28T02:39:34.125Z,18.14
2022-08-28T02:42:05.115Z,18.12
2022-08-28T02:44:36.775Z,18.12
2022-08-28T02:47:08.822Z,18.10
2022-08-28T02:49:40.261Z,18.08
2022-08-28T02:52:11.812Z,18.06
2022-08-28T02:54:42.900Z,18.04
2022-08-28T02:57:14.279Z,18.06
2022-08-28T02:59:46.509Z,18.08
2022-08-28T03:02:17.465Z,18.13
2022-08-28T03:04:48.477Z,18.15
2022-08-28T03:07:19.950Z,18.17
2022-08-28T03:09:50.976Z,18.17
2022-08-28T03:12:24.154Z,18.17
2022-08-28T03:14:56.851Z,18.21
2022-08-28T03:17:27.765Z,18.24
2022-08-28T03:19:59.103Z,18.25
2022-08-28T03:22:44.189Z,18.28
2022-08-28T03:25:15.365Z,18.31
2022-08-28T03:27:46.779Z,18.28
2022-08-28T03:30:19.684Z,18.26
2022-08-28T03:32:51.137Z,18.24
2022-08-28T03:35:22.802Z,18.22
2022-08-28T03:37:54.002Z,18.21
2022-08-28T03:40:25.178Z,18.21
2022-08-28T03:42:56.135Z,18.21
2022-08-28T03:45:27.280Z,18.22
2022-08-28T03:47:58.128Z,18.21
2022-08-28T03:50:30.311Z,18.17
2022-08-28T03:53:01.781Z,18.15
2022-08-28T03:55:32.818Z,18.15
2022-08-28T03:58:03.547Z,18.17
2022-08-28T04:00:34.731Z,18.19
2022-08-28T04:03:06.499Z,18.18
2022-08-28T04:05:37.662Z,18.13
2022-08-28T04:08:09.762Z,18.11
2022-08-28T04:10:41.052Z,18.11
2022-08-28T04:13:12.576Z,18.12
2022-08-28T04:15:44.023Z,18.13
2022-08-28T04:18:15.999Z,18.16
2022-08-28T04:20:46.959Z,18.20
2022-08-28T04:23:17.820Z,18.21
2022-08-28T04:25:48.808Z,18.20
2022-08-28T04:28:19.818Z,18.19
2022-08-28T04:30:52.209Z,18.21
2022-08-28T04:33:23.363Z,18.21
2022-08-28T04:35:54.714Z,18.25
2022-08-28T04:38:26.060Z,18.30
2022-08-28T04:40:57.211Z,18.34
2022-08-28T04:43:30.092Z,18.38
2022-08-28T04:46:04.724Z,18.42
2022-08-28T04:48:35.687Z,18.48
2022-08-28T04:51:08.611Z,18.55
2022-08-28T04:53:40.435Z,18.59
2022-08-28T04:56:14.222Z,18.62
2022-08-28T04:58:46.047Z,18.64
2022-08-28T05:01:19.837Z,18.65
2022-08-28T05:03:54.194Z,18.68
2022-08-28T05:06:27.320Z,18.72
2022-08-28T05:09:00.903Z,18.81
2022-08-28T05:11:35.131Z,18.86
2022-08-28T05:14:08.348Z,18.87
2022-08-28T05:16:45.945Z,18.88
2022-08-28T05:19:15.998Z,18.90
2022-08-28T05:21:47.154Z,18.85
2022-08-28T05:24:18.797Z,18.94
2022-08-28T05:26:49.752Z,18.97
2022-08-28T05:29:21.214Z,19.03
2022-08-28T05:31:54.674Z,19.09
2022-08-28T05:34:26.058Z,19.12
2022-08-28T05:36:57.176Z,19.17
2022-08-28T05:39:28.853Z,19.19
2022-08-28T05:41:59.815Z,19.21
2022-08-28T05:44:30.912Z,19.25
2022-08-28T05:47:02.440Z,19.30
2022-08-28T05:49:33.457Z,19.35
2022-08-28T05:52:04.926Z,19.41
2022-08-28T05:54:35.929Z,19.46
2022-08-28T05:57:07.276Z,19.51
2022-08-28T05:59:38.181Z,19.56
2022-08-28T06:02:09.275Z,19.60
2022-08-28T06:04:40.678Z,19.65
2022-08-28T06:07:13.728Z,19.65
2022-08-28T06:09:44.957Z,19.65
2022-08-28T06:12:16.710Z,19.64
2022-08-28T06:14:48.968Z,19.67
2022-08-28T06:17:23.638Z,19.69
2022-08-28T06:19:54.962Z,19.71
2022-08-28T06:22:26.450Z,19.70
2022-08-28T06:24:57.659Z,19.71
2022-08-28T06:27:28.881Z,19.72
2022-08-28T06:30:00.206Z,19.75
2022-08-28T06:32:31.429Z,19.76
2022-08-28T06:35:02.387Z,19.79
2022-08-28T06:37:33.352Z,19.80
2022-08-28T06:40:05.019Z,19.82
2022-08-28T06:42:35.892Z,19.89
2022-08-28T06:45:07.932Z,19.96
2022-08-28T06:47:38.853Z,20.03
2022-08-28T06:50:11.194Z,20.08
2022-08-28T06:52:42.692Z,20.08
2022-08-28T06:55:14.214Z,20.07
2022-08-28T06:57:46.430Z,20.09
2022-08-28T07:00:18.215Z,20.10
2022-08-28T07:02:49.233Z,20.13
2022-08-28T07:05:20.177Z,20.16
2022-08-28T07:07:52.341Z,20.17
2022-08-28T07:10:23.660Z,20.16
2022-08-28T07:12:54.750Z,20.11
2022-08-28T07:15:26.070Z,20.07
2022-08-28T07:17:57.935Z,20.05
2022-08-28T07:20:29.261Z,20.05
2022-08-28T07:23:18.907Z,20.06
2022-08-28T07:25:50.061Z,20.11
2022-08-28T07:28:21.029Z,20.15
2022-08-28T07:31:01.009Z,20.21
2022-08-28T07:33:33.433Z,20.26
2022-08-28T07:36:07.124Z,20.33
2022-08-28T07:38:38.232Z,20.39
2022-08-28T07:41:17.485Z,20.42
2022-08-28T07:44:06.501Z,20.50
2022-08-28T07:46:38.150Z,20.49
2022-08-28T07:49:09.844Z,20.48
2022-08-28T07:51:40.612Z,20.50
2022-08-28T07:54:15.710Z,20.54
2022-08-28T07:56:49.210Z,20.59
2022-08-28T07:59:21.943Z,20.59
2022-08-28T08:01:54.145Z,20.57
2022-08-28T08:04:26.438Z,20.54
2022-08-28T08:06:58.305Z,20.50
2022-08-28T08:09:29.557Z,20.49
2022-08-28T08:12:01.072Z,20.47
2022-08-28T08:14:32.154Z,20.49
2022-08-28T08:17:07.324Z,20.49
2022-08-28T08:19:39.511Z,20.43
2022-08-28T08:22:10.762Z,20.30
2022-08-28T08:24:41.547Z,20.19
2022-08-28T08:27:12.506Z,20.17
2022-08-28T08:29:43.349Z,20.16
2022-08-28T08:32:14.701Z,20.14
2022-08-28T08:34:47.331Z,20.11
2022-08-28T08:37:20.318Z,20.12
2022-08-28T08:39:56.542Z,20.17
2022-08-28T08:42:31.020Z,20.21
2022-08-28T08:45:16.139Z,20.26
2022-08-28T08:47:51.652Z,20.36
2022-08-28T08:50:25.340Z,20.51
2022-08-28T08:53:17.506Z,20.68
2022-08-28T08:55:51.312Z,20.79
2022-08-28T08:58:29.755Z,20.89
2022-08-28T09:01:05.857Z,20.97
2022-08-28T09:03:53.729Z,21.05
2022-08-28T09:06:35.033Z,21.16
2022-08-28T09:09:14.869Z,21.27
2022-08-28T09:11:57.251Z,21.44
2022-08-28T09:14:32.308Z,21.55
2022-08-28T09:17:03.910Z,21.64
2022-08-28T09:19:35.243Z,21.73
2022-08-28T09:22:06.608Z,21.80
2022-08-28T09:24:41.360Z,21.83
2022-08-28T09:27:26.785Z,21.82
2022-08-28T09:30:07.634Z,21.82
2022-08-28T09:32:43.678Z,21.81
2022-08-28T09:35:27.479Z,21.77
2022-08-28T09:38:17.750Z,21.75
2022-08-28T09:41:06.363Z,21.75
2022-08-28T09:43:38.508Z,21.71
2022-08-28T09:46:21.886Z,21.75
2022-08-28T09:48:53.249Z,21.79
2022-08-28T09:51:35.037Z,21.84
2022-08-28T09:54:14.166Z,21.84
2022-08-28T09:56:46.037Z,21.80
2022-08-28T09:59:20.663Z,21.76
2022-08-28T10:02:02.521Z,21.81
2022-08-28T10:04:49.190Z,21.81
2022-08-28T10:07:31.167Z,21.87
2022-08-28T10:10:17.063Z,21.96
2022-08-28T10:13:00.354Z,22.06
2022-08-28T10:15:39.979Z,22.13
2022-08-28T10:18:34.117Z,22.11
2022-08-28T10:21:15.021Z,22.05
2022-08-28T10:24:05.404Z,22.04
2022-08-28T10:26:44.636Z,21.98
2022-08-28T10:29:28.301Z,22.04
2022-08-28T10:32:12.947Z,22.15
2022-08-28T10:34:54.814Z,22.17
2022-08-28T10:37:35.783Z,22.23
2022-08-28T10:40:14.076Z,22.31
2022-08-28T10:42:48.337Z,22.42
2022-08-28T10:45:24.092Z,22.41
2022-08-28T10:48:00.589Z,22.45
2022-08-28T10:50:40.171Z,22.50
2022-08-28T10:53:16.860Z,22.50
2022-08-28T10:55:55.770Z,22.46
2022-08-28T10:58:28.738Z,22.35
2022-08-28T11:01:03.329Z,22.25
2022-08-28T11:03:44.818Z,22.17
2022-08-28T11:06:22.838Z,22.08
2022-08-28T11:08:57.479Z,22.06
2022-08-28T11:11:48.726Z,22.12
2022-08-28T11:14:30.118Z,22.10
2022-08-28T11:17:03.346Z,22.11
2022-08-28T11:20:01.402Z,22.16
2022-08-28T11:22:37.631Z,22.17
2022-08-28T11:25:19.630Z,22.22
2022-08-28T11:28:40.370Z,22.26
2022-08-28T11:31:43.333Z,22.34
2022-08-28T11:34:47.288Z,22.41
2022-08-28T11:37:42.455Z,22.41
2022-08-28T11:40:53.753Z,22.46
2022-08-28T11:43:37.488Z,22.57
2022-08-28T11:46:14.953Z,22.72
2022-08-28T11:48:54.363Z,22.70
2022-08-28T11:51:57.301Z,22.61
2022-08-28T11:54:44.583Z,22.58
2022-08-28T11:57:19.775Z,22.64
2022-08-28T12:00:03.402Z,22.64
2022-08-28T12:02:49.272Z,22.60
2022-08-28T12:05:40.124Z,22.61
2022-08-28T12:08:12.159Z,22.57
2022-08-28T12:10:59.004Z,22.53
2022-08-28T12:13:48.870Z,22.37
2022-08-28T12:16:19.806Z,22.26
2022-08-28T12:19:02.926Z,22.26
2022-08-28T12:21:41.117Z,22.25
2022-08-28T12:24:22.637Z,22.26
2022-08-28T12:26:57.117Z,22.29
2022-08-28T12:29:41.596Z,22.31
2022-08-28T12:32:34.238Z,22.33
2022-08-28T12:35:20.691Z,22.35
2022-08-28T12:38:03.807Z,22.41
2022-08-28T12:40:51.294Z,22.39
2022-08-28T12:43:32.402Z,22.36
2022-08-28T12:46:07.139Z,22.29
2022-08-28T12:48:55.543Z,22.27
2022-08-28T12:51:29.301Z,22.24
2022-08-28T12:54:02.766Z,22.16
2022-08-28T12:56:37.621Z,22.11
2022-08-28T12:59:27.233Z,22.13
2022-08-28T13:02:05.789Z,22.11
2022-08-28T13:04:39.818Z,22.13
2022-08-28T13:07:15.674Z,22.12
2022-08-28T13:09:52.455Z,22.05
2022-08-28T13:12:55.328Z,22.01
2022-08-28T13:15:46.307Z,22.00
2022-08-28T13:18:38.140Z,22.08
2022-08-28T13:21:33.599Z,22.08
2022-08-28T13:24:28.827Z,22.09
2022-08-28T13:27:06.987Z,22.12
2022-08-28T13:29:38.467Z,22.14
2022-08-28T13:32:16.138Z,22.20
2022-08-28T13:35:09.498Z,22.34
2022-08-28T13:37:46.997Z,22.46
2022-08-28T13:40:53.331Z,22.48
2022-08-28T13:43:24.430Z,22.48
2022-08-28T13:45:56.112Z,22.47
2022-08-28T13:48:28.923Z,22.53
2022-08-28T13:51:04.935Z,22.53
2022-08-28T13:53:36.075Z,22.52
2022-08-28T13:56:07.548Z,22.48
2022-08-28T13:58:38.427Z,22.40
2022-08-28T14:01:09.489Z,22.37
2022-08-28T14:03:41.246Z,22.34
2022-08-28T14:06:14.687Z,22.35
2022-08-28T14:08:47.326Z,22.39
2022-08-28T14:11:18.823Z,22.44
2022-08-28T14:13:55.650Z,22.45
2022-08-28T14:16:27.617Z,22.43
2022-08-28T14:19:04.606Z,22.52
2022-08-28T14:21:36.815Z,22.59
2022-08-28T14:24:09.730Z,22.54
2022-08-28T14:26:41.297Z,22.51
2022-08-28T14:29:14.457Z,22.58
2022-08-28T14:31:46.223Z,22.60
2022-08-28T14:34:20.053Z,22.87
2022-08-28T14:36:55.182Z,23.24
2022-08-28T14:39:28.091Z,23.46
2022-08-28T14:41:59.149Z,23.57
2022-08-28T14:44:30.996Z,23.47
2022-08-28T14:47:03.151Z,23.38
2022-08-28T14:49:34.731Z,23.26
2022-08-28T14:52:06.703Z,23.12
2022-08-28T14:54:42.066Z,23.16
2022-08-28T14:57:13.732Z,23.14
2022-08-28T14:59:45.325Z,23.15
2022-08-28T15:02:16.600Z,23.15
2022-08-28T15:04:47.993Z,23.03
2022-08-28T15:07:21.277Z,22.92
2022-08-28T15:09:52.262Z,22.82
2022-08-28T15:12:23.841Z,22.65
2022-08-28T15:14:57.305Z,22.52
2022-08-28T15:17:34.296Z,22.36
2022-08-28T15:20:08.835Z,22.25
2022-08-28T15:22:39.774Z,22.23
2022-08-28T15:25:11.118Z,22.29
2022-08-28T15:27:42.333Z,22.48
2022-08-28T15:30:14.516Z,22.65
2022-08-28T15:32:47.329Z,22.63
2022-08-28T15:35:18.552Z,22.57
2022-08-28T15:37:49.660Z,22.66
2022-08-28T15:40:38.325Z,22.49
2022-08-28T15:43:07.678Z,22.18
2022-08-28T15:45:40.468Z,21.99
2022-08-28T15:48:13.268Z,21.86
2022-08-28T15:50:45.019Z,21.72
2022-08-28T15:53:18.154Z,21.62
2022-08-28T15:55:50.547Z,21.45
2022-08-28T15:58:21.504Z,21.31
2022-08-28T16:00:52.929Z,21.17
2022-08-28T16:03:23.824Z,21.09
2022-08-28T16:05:55.146Z,20.96
2022-08-28T16:08:26.665Z,20.79
2022-08-28T16:10:58.051Z,20.61
2022-08-28T16:13:28.980Z,20.48
2022-08-28T16:16:00.184Z,20.38
2022-08-28T16:18:31.651Z,20.34
2022-08-28T16:21:04.969Z,20.31
2022-08-28T16:23:36.317Z,20.24
2022-08-28T16:26:09.342Z,20.21
2022-08-28T16:28:40.897Z,20.29
2022-08-28T16:31:19.279Z,20.36
2022-08-28T16:33:52.258Z,20.36
2022-08-28T16:36:25.360Z,20.34
2022-08-28T16:39:00.293Z,20.31
2022-08-28T16:41:34.888Z,20.32
2022-08-28T16:44:06.628Z,20.42
2022-08-28T16:46:37.943Z,20.44
2022-08-28T16:49:12.251Z,20.43
2022-08-28T16:51:44.061Z,20.32
2022-08-28T16:54:15.986Z,20.26
2022-08-28T16:56:47.182Z,20.18
2022-08-28T16:59:20.561Z,20.06
2022-08-28T17:01:55.286Z,19.99
2022-08-28T17:04:26.586Z,19.91
2022-08-28T17:06:58.646Z,19.81
2022-08-28T17:09:29.956Z,19.73
2022-08-28T17:12:01.566Z,19.71
2022-08-28T17:14:35.465Z,19.70
2022-08-28T17:17:07.643Z,19.69
2022-08-28T17:19:38.946Z,19.68
2022-08-28T17:22:27.315Z,19.66
2022-08-28T17:24:58.951Z,19.63
2022-08-28T17:27:32.121Z,19.61
2022-08-28T17:30:04.939Z,19.57
2022-08-28T17:32:36.270Z,19.62
2022-08-28T17:35:08.420Z,19.59
2022-08-28T17:37:41.369Z,19.56
2022-08-28T17:40:15.568Z,19.54
2022-08-28T17:42:48.325Z,19.52
2022-08-28T17:45:19.766Z,19.47
2022-08-28T17:47:52.723Z,19.44
2022-08-28T17:50:26.047Z,19.38
2022-08-28T17:52:57.055Z,19.37
2022-08-28T17:55:28.174Z,19.34
2022-08-28T17:57:59.216Z,19.32
2022-08-28T18:00:30.354Z,19.31
2022-08-28T18:03:01.097Z,19.29
2022-08-28T18:05:32.472Z,19.29
2022-08-28T18:08:03.511Z,19.30
2022-08-28T18:10:35.417Z,19.28
2022-08-28T18:13:07.771Z,19.27
2022-08-28T18:15:38.816Z,19.25
2022-08-28T18:18:10.087Z,19.24
2022-08-28T18:20:41.524Z,19.22
2022-08-28T18:23:12.524Z,19.20
2022-08-28T18:25:50.591Z,19.16
2022-08-28T18:28:24.925Z,19.14
2022-08-28T18:30:56.152Z,19.11
2022-08-28T18:33:37.189Z,19.07
2022-08-28T18:36:09.949Z,19.06
2022-08-28T18:38:41.970Z,19.04
2022-08-28T18:41:13.251Z,18.99
2022-08-28T18:43:44.205Z,18.96
2022-08-28T18:46:15.338Z,18.92
2022-08-28T18:48:47.386Z,18.87
2022-08-28T18:51:21.659Z,18.85
2022-08-28T18:53:53.236Z,18.81
2022-08-28T18:56:24.382Z,18.77
2022-08-28T18:58:59.953Z,18.73
2022-08-28T19:01:31.055Z,18.68
2022-08-28T19:04:01.896Z,18.64
2022-08-28T19:06:33.123Z,18.61
2022-08-28T19:09:05.684Z,18.57
2022-08-28T19:11:37.516Z,18.52
2022-08-28T19:14:08.838Z,18.46
2022-08-28T19:16:40.136Z,18.38
2022-08-28T19:19:11.029Z,18.27
2022-08-28T19:21:42.054Z,18.17
2022-08-28T19:24:16.412Z,18.04
2022-08-28T19:26:47.933Z,17.93
2022-08-28T19:29:19.152Z,17.84
2022-08-28T19:31:52.378Z,17.79
2022-08-28T19:34:23.763Z,17.73
2022-08-28T19:36:54.935Z,17.66
2022-08-28T19:39:26.359Z,17.58
2022-08-28T19:41:57.334Z,17.49
2022-08-28T19:44:28.199Z,17.41
2022-08-28T19:46:59.157Z,17.34
2022-08-28T19:49:30.205Z,17.29
2022-08-28T19:52:03.039Z,17.22
2022-08-28T19:54:36.886Z,17.16
2022-08-28T19:57:08.408Z,17.12
2022-08-28T19:59:39.886Z,17.05
2022-08-28T20:02:11.965Z,16.98
2022-08-28T20:04:43.243Z,16.88
2022-08-28T20:07:14.233Z,16.77
2022-08-28T20:09:45.446Z,16.71
2022-08-28T20:12:17.001Z,16.63
2022-08-28T20:14:48.381Z,16.55
2022-08-28T20:17:19.766Z,16.51
2022-08-28T20:19:50.764Z,16.45
2022-08-28T20:22:21.707Z,16.37
2022-08-28T20:24:52.962Z,16.33
2022-08-28T20:27:24.086Z,16.29
2022-08-28T20:29:55.369Z,16.27
2022-08-28T20:32:26.078Z,16.22
2022-08-28T20:34:57.245Z,16.18
2022-08-28T20:37:28.347Z,16.13
2022-08-28T20:40:00.960Z,16.08
2022-08-28T20:42:32.298Z,16.03
2022-08-28T20:45:03.608Z,16.00
2022-08-28T20:47:34.692Z,15.96
2022-08-28T20:50:06.295Z,15.94
2022-08-28T20:52:37.194Z,15.87
2022-08-28T20:55:10.575Z,15.78
2022-08-28T20:57:41.315Z,15.66
2022-08-28T21:00:14.156Z,15.60
2022-08-28T21:02:44.931Z,15.55
2022-08-28T21:05:16.195Z,15.47
2022-08-28T21:07:48.090Z,15.41
2022-08-28T21:10:19.563Z,15.35
2022-08-28T21:12:50.700Z,15.33
2022-08-28T21:15:21.592Z,15.33
2022-08-28T21:17:54.874Z,15.31
2022-08-28T21:20:26.323Z,15.25
2022-08-28T21:22:59.003Z,15.19
2022-08-28T21:25:30.147Z,15.15
2022-08-28T21:28:04.096Z,15.05
2022-08-28T21:30:35.641Z,14.94
2022-08-28T21:33:06.758Z,14.82
2022-08-28T21:35:37.871Z,14.75
2022-08-28T21:38:09.004Z,14.69
2022-08-28T21:40:42.047Z,14.63
2022-08-28T21:43:13.087Z,14.59
2022-08-28T21:45:43.934Z,14.57
2022-08-28T21:48:15.345Z,14.55
2022-08-28T21:50:46.423Z,14.53
2022-08-28T21:53:19.842Z,14.51
2022-08-28T21:55:52.482Z,14.51
2022-08-28T21:58:24.374Z,14.51
2022-08-28T22:00:57.212Z,14.43
2022-08-28T22:03:29.546Z,14.37
2022-08-28T22:06:00.384Z,14.36
2022-08-28T22:08:31.421Z,14.33
2022-08-28T22:11:02.423Z,14.36
2022-08-28T22:13:33.687Z,14.37
2022-08-28T22:16:06.138Z,14.38
2022-08-28T22:18:37.955Z,14.38
2022-08-28T22:21:30.059Z,14.39
2022-08-28T22:24:01.829Z,14.37
2022-08-28T22:26:33.141Z,14.35
2022-08-28T22:29:04.214Z,14.31
2022-08-28T22:31:35.115Z,14.24
2022-08-28T22:34:07.704Z,14.16
2022-08-28T22:36:39.386Z,14.13
2022-08-28T22:39:10.412Z,14.10
2022-08-28T22:41:42.150Z,14.09
2022-08-28T22:44:13.482Z,14.10
2022-08-28T22:46:44.312Z,14.11
2022-08-28T22:49:16.474Z,14.12
2022-08-28T22:51:47.496Z,14.12
2022-08-28T22:54:19.020Z,14.10
2022-08-28T22:56:50.029Z,14.09
2022-08-28T22:59:21.436Z,14.09
2022-08-28T23:01:52.542Z,14.07
2022-08-28T23:04:23.497Z,14.05
2022-08-28T23:06:54.863Z,14.02
2022-08-28T23:09:25.869Z,13.92
2022-08-28T23:12:00.191Z,13.80
2022-08-28T23:14:31.636Z,13.76
2022-08-28T23:17:02.697Z,13.68
2022-08-28T23:19:33.723Z,13.58
2022-08-28T23:22:04.841Z,13.52
2022-08-28T23:24:39.315Z,13.45
2022-08-28T23:27:34.722Z,13.40
2022-08-28T23:30:01.648Z,13.39
2022-08-28T23:32:34.111Z,13.38
2022-08-28T23:35:07.277Z,13.35
2022-08-28T23:37:40.030Z,13.31
2022-08-28T23:40:15.903Z,13.26
2022-08-28T23:42:47.027Z,13.21
2022-08-28T23:45:20.412Z,13.16
2022-08-28T23:47:51.439Z,13.14
2022-08-28T23:50:24.335Z,13.13
2022-08-28T23:52:55.838Z,13.11
2022-08-28T23:55:28.987Z,13.10
2022-08-28T23:58:00.739Z,13.07
